Time;durP1;ratioP1;P1;durP2;ratioP2;P2;SDS_P1;SDS_P2;PMS_P1;PMS_P2;Temp;Humidity;BMP_temperature;BMP_pressure;BME280_temperature;BME280_humidity;BME280_pressure;Samples;Min_cycle;Max_cycle;Signal;HPM_P1;HPM_P2
2023/12/07 00:01:57;;;;;;;2.70;2.50;;;1.60;99.90;0.50;96166.00;;;;5097009;28;20230;-63
2023/12/07 00:04:24;;;;;;;4.00;2.57;;;1.60;99.90;0.50;96170.00;;;;5097006;28;20185;-63
2023/12/07 00:06:51;;;;;;;4.00;2.70;;;1.60;99.90;0.50;96169.00;;;;5097036;28;20668;-63
2023/12/07 00:09:18;;;;;;;2.90;1.80;;;1.70;99.90;0.50;96176.00;;;;5096690;28;20193;-63
2023/12/07 00:11:45;;;;;;;1.37;1.37;;;1.70;99.90;0.60;96181.00;;;;5096229;28;20210;-63
2023/12/07 00:14:13;;;;;;;2.20;2.00;;;1.70;99.90;0.60;96188.00;;;;5095985;28;20267;-63
2023/12/07 00:16:41;;;;;;;4.17;1.67;;;1.70;99.90;0.70;96182.00;;;;5095949;28;20194;-63
2023/12/07 00:19:07;;;;;;;3.03;2.20;;;1.80;99.90;0.80;96180.00;;;;5096336;28;20268;-63
2023/12/07 00:21:34;;;;;;;2.33;2.03;;;1.80;99.90;0.80;96185.00;;;;5096285;28;20240;-63
2023/12/07 00:24:02;;;;;;;1.90;1.80;;;1.80;99.90;0.60;96181.00;;;;5078479;28;20185;-63
2023/12/07 00:26:29;;;;;;;1.20;1.20;;;1.80;99.90;0.60;96185.00;;;;5096200;28;20239;-65
2023/12/07 00:28:56;;;;;;;4.53;2.17;;;1.70;99.90;0.70;96174.00;;;;5096021;28;20185;-63
2023/12/07 00:31:23;;;;;;;1.70;1.60;;;1.80;99.90;0.60;96182.00;;;;5095916;28;20193;-63
2023/12/07 00:33:51;;;;;;;2.27;2.10;;;1.70;99.90;0.60;96185.00;;;;5096180;28;20217;-63
2023/12/07 00:36:18;;;;;;;2.57;1.97;;;1.70;99.90;0.60;96190.00;;;;5096088;28;20213;-63
2023/12/07 00:38:45;;;;;;;1.67;1.57;;;1.70;99.90;0.70;96180.00;;;;5096045;28;20185;-63
2023/12/07 00:41:12;;;;;;;2.23;2.10;;;1.70;99.90;0.70;96179.00;;;;5096162;28;20268;-63
2023/12/07 00:43:39;;;;;;;1.37;1.30;;;1.70;99.90;0.70;96181.00;;;;5095572;28;20220;-64
2023/12/07 00:46:08;;;;;;;2.53;1.80;;;1.70;99.90;0.70;96177.00;;;;5077318;28;20260;-63
2023/12/07 00:48:35;;;;;;;2.30;2.10;;;1.80;99.90;0.80;96178.00;;;;5095795;28;20192;-63
2023/12/07 00:51:06;;;;;;;1.47;1.40;;;1.80;99.90;0.80;96177.00;;;;5096323;28;20269;-63
2023/12/07 00:53:33;;;;;;;5.10;2.40;;;1.90;99.90;0.80;96184.00;;;;5096321;28;20213;-63
2023/12/07 00:56:00;;;;;;;1.43;1.33;;;1.90;99.90;0.90;96191.00;;;;5095465;28;20190;-64
2023/12/07 00:58:27;;;;;;;1.63;1.37;;;1.90;99.90;0.70;96187.00;;;;5096048;28;20186;-63
2023/12/07 01:00:54;;;;;;;1.60;1.50;;;1.80;99.90;0.70;96180.00;;;;5095667;28;20275;-63
2023/12/07 01:03:21;;;;;;;1.87;1.77;;;1.80;99.90;0.70;96185.00;;;;5095377;28;20297;-63
2023/12/07 01:05:48;;;;;;;1.17;1.13;;;1.70;99.90;0.60;96189.00;;;;5095760;28;20235;-63
2023/12/07 01:08:16;;;;;;;1.10;1.10;;;1.70;99.90;0.70;96185.00;;;;5095822;28;20193;-63
2023/12/07 01:10:43;;;;;;;1.73;1.63;;;1.80;99.90;0.70;96188.00;;;;5095488;28;20191;-65
2023/12/07 01:13:10;;;;;;;5.33;2.07;;;1.80;99.90;0.70;96186.00;;;;5095242;28;20213;-63
2023/12/07 01:15:37;;;;;;;1.10;1.10;;;1.80;99.90;0.70;96199.00;;;;5095619;28;20187;-64
2023/12/07 01:18:04;;;;;;;1.87;1.77;;;1.80;99.90;0.70;96200.00;;;;5095422;28;20194;-63
2023/12/07 01:20:31;;;;;;;1.63;1.53;;;1.80;99.90;0.70;96199.00;;;;5095729;28;20695;-63
2023/12/07 01:22:58;;;;;;;1.33;1.33;;;1.80;99.90;0.70;96202.00;;;;5095119;28;20221;-63
2023/12/07 01:25:27;;;;;;;4.27;2.30;;;1.80;99.90;0.60;96200.00;;;;5077125;28;20675;-63
2023/12/07 01:27:54;;;;;;;2.83;1.77;;;1.70;99.90;0.50;96207.00;;;;5095613;28;20235;-63
2023/12/07 01:30:21;;;;;;;2.63;1.93;;;1.70;99.90;0.50;96216.00;;;;5095217;28;20216;-63
2023/12/07 01:32:48;;;;;;;1.60;1.50;;;1.70;99.90;0.50;96216.00;;;;5095611;28;20217;-62
2023/12/07 01:35:16;;;;;;;0.90;0.90;;;1.60;99.90;0.40;96219.00;;;;5095255;28;20668;-62
2023/12/07 01:37:43;;;;;;;1.60;1.50;;;1.60;99.90;0.50;96217.00;;;;5095021;28;20680;-62
2023/12/07 01:40:10;;;;;;;1.73;1.63;;;1.50;99.90;0.40;96219.00;;;;5094951;28;20216;-62
2023/12/07 01:42:39;;;;;;;2.67;1.77;;;1.50;99.90;0.40;96201.00;;;;5095086;28;20250;-63
2023/12/07 01:45:08;;;;;;;2.17;2.07;;;1.50;99.90;0.40;96217.00;;;;5094946;28;20194;-62
2023/12/07 01:47:37;;;;;;;4.33;2.57;;;1.50;99.90;0.40;96229.00;;;;5095516;28;20185;-62
2023/12/07 01:50:06;;;;;;;2.63;2.43;;;1.60;99.90;0.40;96222.00;;;;5095912;28;20521;-63
2023/12/07 01:52:36;;;;;;;2.07;1.90;;;1.50;99.90;0.40;96222.00;;;;5095248;28;20277;-67
2023/12/07 01:55:05;;;;;;;2.23;1.90;;;1.50;99.90;0.30;96212.00;;;;5094834;28;20189;-62
2023/12/07 01:57:34;;;;;;;2.57;2.33;;;1.50;99.90;0.40;96233.00;;;;5094925;28;20194;-64
2023/12/07 02:00:04;;;;;;;3.27;2.73;;;1.40;99.90;0.40;96216.00;;;;5094438;28;20247;-63
2023/12/07 02:02:31;;;;;;;2.40;2.00;;;1.50;99.90;0.40;96240.00;;;;5094232;28;20231;-63
2023/12/07 02:04:58;;;;;;;1.37;1.30;;;1.50;99.90;0.40;96228.00;;;;5094423;28;20637;-63
2023/12/07 02:07:27;;;;;;;2.13;1.93;;;1.50;99.90;0.40;96221.00;;;;5095113;28;20186;-62
2023/12/07 02:09:54;;;;;;;1.67;1.57;;;1.50;99.90;0.40;96230.00;;;;5094371;28;20696;-63
2023/12/07 02:12:21;;;;;;;2.40;1.13;;;1.50;99.90;0.30;96220.00;;;;5094688;28;20220;-63
2023/12/07 02:14:48;;;;;;;1.70;1.60;;;1.40;99.90;0.30;96219.00;;;;5094694;28;20198;-63
2023/12/07 02:17:25;;;;;;;2.27;1.67;;;1.50;99.90;0.30;96219.00;;;;5095232;28;20217;-63
2023/12/07 02:20:06;;;;;;;1.97;1.87;;;1.40;99.90;0.20;96212.00;;;;5094403;28;20192;-63
2023/12/07 02:22:39;;;;;;;2.23;2.03;;;1.30;99.90;0.20;96203.00;;;;5094162;28;20703;-62
2023/12/07 02:25:09;;;;;;;1.63;1.53;;;1.30;99.90;0.10;96207.00;;;;5094403;28;20196;-62
2023/12/07 02:27:40;;;;;;;2.53;2.33;;;1.30;99.90;0.10;96205.00;;;;5094427;28;20193;-63
2023/12/07 02:30:09;;;;;;;1.43;1.33;;;1.20;99.90;0.10;96205.00;;;;5094020;28;20596;-63
2023/12/07 02:32:38;;;;;;;2.43;1.67;;;1.20;99.90;0.00;96218.00;;;;5093912;28;20207;-63
2023/12/07 02:35:06;;;;;;;2.10;1.97;;;1.20;99.90;0.00;96208.00;;;;5093910;28;20190;-62
2023/12/07 02:37:41;;;;;;;1.00;1.00;;;1.20;99.90;-0.10;96214.00;;;;5094006;28;20228;-62
2023/12/07 02:40:10;;;;;;;1.77;1.60;;;1.10;99.90;-0.10;96204.00;;;;5094122;28;20534;-62
2023/12/07 02:42:41;;;;;;;3.70;1.53;;;1.00;99.90;-0.10;96214.00;;;;5094237;28;20213;-62
2023/12/07 02:45:10;;;;;;;2.90;1.47;;;1.00;99.90;-0.20;96203.00;;;;5093572;28;20177;-62
2023/12/07 02:47:38;;;;;;;1.13;1.13;;;1.00;99.90;-0.20;96204.00;;;;5093551;28;20201;-63
2023/12/07 02:50:07;;;;;;;1.53;1.43;;;0.90;99.90;-0.20;96214.00;;;;5093949;28;20272;-62
2023/12/07 02:52:35;;;;;;;1.37;1.33;;;0.90;99.90;-0.30;96212.00;;;;5093421;28;20274;-62
2023/12/07 02:55:02;;;;;;;6.03;1.80;;;0.90;99.90;-0.30;96206.00;;;;5093814;28;20188;-62
2023/12/07 02:57:30;;;;;;;1.57;1.47;;;0.90;99.90;-0.30;96193.00;;;;5094437;28;20532;-62
2023/12/07 02:59:58;;;;;;;1.30;1.30;;;0.70;98.80;-0.30;96219.00;;;;5094114;28;20653;-63
2023/12/07 03:02:26;;;;;;;1.30;1.30;;;0.80;99.90;-0.40;96219.00;;;;5094385;28;20230;-63
2023/12/07 03:04:53;;;;;;;1.10;1.10;;;0.80;99.90;-0.40;96219.00;;;;5094017;28;20188;-63
2023/12/07 03:07:20;;;;;;;1.53;1.47;;;0.80;99.90;-0.40;96221.00;;;;5094241;28;20188;-63
2023/12/07 03:09:47;;;;;;;2.13;1.90;;;0.70;99.90;-0.40;96222.00;;;;5094358;28;20198;-63
2023/12/07 03:12:14;;;;;;;4.40;2.83;;;0.80;99.90;-0.40;96215.00;;;;5094037;28;20703;-63
2023/12/07 03:14:41;;;;;;;1.60;1.50;;;0.70;99.90;-0.40;96219.00;;;;5093760;28;20187;-63
2023/12/07 03:17:11;;;;;;;1.40;1.40;;;0.70;99.90;-0.50;96212.00;;;;5093827;28;20183;-62
2023/12/07 03:19:39;;;;;;;1.30;1.20;;;0.60;99.90;-0.50;96227.00;;;;5096724;28;20194;-62
2023/12/07 03:22:07;;;;;;;1.60;1.50;;;0.70;99.90;-0.50;96219.00;;;;5097629;28;20308;-63
2023/12/07 03:24:35;;;;;;;2.10;1.20;;;0.60;99.90;-0.60;96236.00;;;;5097758;28;20703;-63
2023/12/07 03:27:02;;;;;;;1.33;1.23;;;0.60;99.90;-0.60;96230.00;;;;5098115;28;20193;-62
2023/12/07 03:29:29;;;;;;;1.13;1.13;;;0.40;99.90;-0.80;96233.00;;;;5097669;28;20211;-63
2023/12/07 03:31:56;;;;;;;1.17;1.17;;;0.50;98.60;-0.90;96235.00;;;;5097715;28;20212;-63
2023/12/07 03:34:25;;;;;;;1.33;1.23;;;;;-0.90;96237.00;;;;5097784;28;20188;-63
2023/12/07 03:36:52;;;;;;;1.03;1.03;;;0.50;99.90;-1.00;96230.00;;;;5097378;28;20659;-62
2023/12/07 03:39:21;;;;;;;2.80;1.53;;;0.50;99.90;-1.00;96227.00;;;;5097107;28;20551;-62
2023/12/07 03:41:48;;;;;;;3.40;1.70;;;0.20;99.70;-1.10;96240.00;;;;5097295;28;20200;-63
2023/12/07 03:44:15;;;;;;;1.07;1.07;;;0.20;99.40;-1.20;96238.00;;;;5097201;28;20709;-63
2023/12/07 03:46:42;;;;;;;1.37;1.13;;;0.10;99.90;-1.10;96222.00;;;;5097279;28;20658;-62
2023/12/07 03:49:09;;;;;;;1.00;1.00;;;0.00;99.90;-1.10;96230.00;;;;5096794;28;20195;-62
2023/12/07 03:51:39;;;;;;;1.17;1.17;;;0.10;99.90;-1.20;96232.00;;;;5096386;28;20201;-62
2023/12/07 03:54:06;;;;;;;2.27;1.67;;;0.00;99.90;-1.20;96233.00;;;;5096449;28;20557;-62
2023/12/07 03:56:34;;;;;;;1.87;1.67;;;-0.10;99.90;-1.30;96230.00;;;;5096903;28;20193;-64
2023/12/07 03:59:01;;;;;;;1.40;1.30;;;0.00;99.90;-1.20;96234.00;;;;5096798;28;20192;-63
2023/12/07 04:01:30;;;;;;;1.53;1.47;;;0.00;99.90;-1.30;96207.00;;;;5096600;28;20211;-63
2023/12/07 04:04:00;;;;;;;2.40;1.80;;;0.00;99.90;-1.20;96236.00;;;;5096649;28;20614;-64
2023/12/07 04:06:28;;;;;;;2.03;1.93;;;-0.10;99.90;-1.20;96233.00;;;;5096589;28;20270;-64
2023/12/07 04:08:58;;;;;;;1.37;1.27;;;0.00;99.90;-1.30;96238.00;;;;5097213;28;20203;-64
2023/12/07 04:11:25;;;;;;;1.40;1.40;;;0.00;99.90;-1.30;96243.00;;;;5096509;28;20187;-64
2023/12/07 04:13:52;;;;;;;0.80;0.80;;;-0.10;99.90;-1.40;96243.00;;;;5096614;28;20650;-64
2023/12/07 04:16:20;;;;;;;1.57;1.47;;;-0.10;99.90;-1.40;96240.00;;;;5096506;28;20678;-64
2023/12/07 04:18:47;;;;;;;3.20;1.67;;;-0.30;94.30;-1.50;96248.00;;;;5096322;28;20656;-63
2023/12/07 04:21:14;;;;;;;1.53;1.43;;;-0.30;97.10;-1.40;96242.00;;;;5096290;28;20187;-63
2023/12/07 04:23:42;;;;;;;2.30;1.73;;;-0.30;97.50;-1.30;96248.00;;;;5097012;28;20207;-64
2023/12/07 04:26:10;;;;;;;2.37;1.47;;;-0.20;97.50;-1.30;96238.00;;;;5096182;28;20196;-64
2023/12/07 04:28:37;;;;;;;1.73;1.63;;;-0.10;97.20;-1.40;96246.00;;;;5096821;28;20194;-64
2023/12/07 04:31:05;;;;;;;1.47;1.47;;;-0.20;96.30;-1.50;96250.00;;;;5095162;28;20183;-64
2023/12/07 04:33:32;;;;;;;1.63;1.53;;;-0.30;96.60;-1.60;96245.00;;;;5096029;28;20735;-63
2023/12/07 04:35:59;;;;;;;1.37;1.37;;;-0.30;97.00;-1.60;96250.00;;;;5096205;28;20256;-63
2023/12/07 04:38:26;;;;;;;1.50;1.40;;;-0.40;97.60;-1.60;96249.00;;;;5096444;28;20190;-62
2023/12/07 04:40:53;;;;;;;1.10;1.10;;;-0.40;99.50;-1.50;96245.00;;;;5095897;28;20183;-62
2023/12/07 04:43:21;;;;;;;1.50;1.47;;;-0.40;99.60;-1.50;96247.00;;;;5095699;28;20226;-64
2023/12/07 04:45:49;;;;;;;1.10;1.10;;;-0.40;99.70;-1.50;96252.00;;;;5095789;28;20195;-64
2023/12/07 04:48:16;;;;;;;1.63;1.53;;;-0.30;99.80;-1.60;96250.00;;;;5095917;28;20186;-63
2023/12/07 04:50:43;;;;;;;1.27;1.27;;;-0.40;99.80;-1.70;96249.00;;;;5095270;28;20191;-62
2023/12/07 04:53:10;;;;;;;1.27;1.17;;;-0.60;99.90;-1.70;96249.00;;;;5095327;28;20211;-62
2023/12/07 04:55:37;;;;;;;1.33;1.30;;;-0.50;99.90;-1.80;96252.00;;;;5077282;28;20501;-62
2023/12/07 04:58:04;;;;;;;1.03;1.03;;;-0.70;99.90;-1.80;96246.00;;;;5095685;28;20655;-64
2023/12/07 05:00:32;;;;;;;3.27;1.97;;;-0.60;99.90;-1.80;96259.00;;;;5095768;28;20557;-63
2023/12/07 05:02:59;;;;;;;1.30;1.30;;;-0.80;89.20;-1.80;96257.00;;;;5095050;28;20223;-63
2023/12/07 05:05:26;;;;;;;26.00;1.63;;;-0.60;90.70;-1.80;96257.00;;;;5095113;28;20194;-63
2023/12/07 05:07:53;;;;;;;1.33;1.33;;;-0.70;91.30;-1.70;96261.00;;;;5095216;28;20198;-63
2023/12/07 05:10:21;;;;;;;2.33;1.20;;;-0.60;91.90;-1.70;96250.00;;;;5094795;28;20187;-63
2023/12/07 05:12:48;;;;;;;2.77;1.50;;;-0.50;91.80;-1.60;96255.00;;;;5095062;28;20574;-62
2023/12/07 05:15:15;;;;;;;0.80;0.80;;;-0.50;91.80;-1.60;96268.00;;;;5095225;28;20191;-63
2023/12/07 05:17:43;;;;;;;1.60;1.50;;;-0.50;91.80;-1.60;96262.00;;;;5094750;28;20187;-63
2023/12/07 05:20:12;;;;;;;1.00;1.00;;;-0.40;91.80;-1.50;96269.00;;;;5094786;28;20186;-63
2023/12/07 05:22:42;;;;;;;5.17;1.50;;;-0.40;92.10;-1.50;96258.00;;;;5094305;28;20218;-63
2023/12/07 05:25:10;;;;;;;1.67;1.57;;;-0.40;91.80;-1.50;96258.00;;;;5094528;28;20195;-63
2023/12/07 05:27:37;;;;;;;1.93;1.83;;;-0.30;92.00;-1.50;96260.00;;;;5094703;28;20202;-63
2023/12/07 05:30:06;;;;;;;2.77;2.57;;;-0.40;92.10;-1.50;96255.00;;;;5094455;28;20191;-63
2023/12/07 05:32:33;;;;;;;1.83;1.73;;;-0.30;92.10;-1.50;96252.00;;;;5094865;28;20215;-63
2023/12/07 05:35:01;;;;;;;1.83;1.63;;;-0.30;92.20;-1.50;96253.00;;;;5094902;28;20266;-64
2023/12/07 05:37:28;;;;;;;2.93;2.63;;;-0.30;92.00;-1.60;96257.00;;;;5094342;28;20658;-63
2023/12/07 05:39:55;;;;;;;2.20;2.03;;;-0.30;91.90;-1.50;96262.00;;;;5095205;28;20187;-63
2023/12/07 05:42:22;;;;;;;3.60;2.80;;;-0.40;92.40;-1.50;96258.00;;;;5094521;28;20210;-63
2023/12/07 05:44:49;;;;;;;1.37;1.33;;;-0.40;92.30;-1.60;96248.00;;;;5094478;28;20252;-63
2023/12/07 05:47:16;;;;;;;2.43;2.27;;;-0.50;91.80;-1.70;96250.00;;;;5094702;28;20202;-63
2023/12/07 05:49:44;;;;;;;1.37;1.37;;;-0.50;91.70;-1.80;96263.00;;;;5094322;28;20190;-63
2023/12/07 05:52:12;;;;;;;1.23;1.23;;;-0.60;91.20;-1.80;96254.00;;;;5094386;28;20207;-63
2023/12/07 05:54:43;;;;;;;1.60;1.50;;;-0.60;91.00;-1.70;96261.00;;;;5094425;28;20277;-63
2023/12/07 05:57:10;;;;;;;2.03;1.93;;;-0.60;91.10;-1.90;96260.00;;;;5094219;28;20181;-63
2023/12/07 05:59:38;;;;;;;2.33;2.13;;;-0.70;88.70;-1.90;96261.00;;;;5094603;28;20646;-63
2023/12/07 06:02:05;;;;;;;2.37;2.27;;;-0.80;87.80;-1.90;96253.00;;;;5093935;28;20284;-64
2023/12/07 06:04:32;;;;;;;2.73;2.43;;;-0.70;88.20;-1.80;96253.00;;;;5094334;28;20251;-63
2023/12/07 06:06:59;;;;;;;3.20;2.30;;;-0.60;87.90;-1.80;96247.00;;;;5094001;28;20193;-63
2023/12/07 06:09:28;;;;;;;2.33;2.13;;;-0.60;88.20;-1.90;96248.00;;;;5094403;28;20194;-64
2023/12/07 06:11:55;;;;;;;2.00;1.90;;;-0.70;87.30;-1.90;96256.00;;;;5094445;28;20241;-64
2023/12/07 06:14:23;;;;;;;0.97;0.97;;;-0.70;87.30;-1.90;96248.00;;;;5094376;28;20549;-64
2023/12/07 06:16:50;;;;;;;2.27;1.57;;;-0.70;87.20;-2.00;96258.00;;;;5093961;28;20195;-64
2023/12/07 06:19:17;;;;;;;2.40;2.20;;;-0.70;86.60;-1.90;96262.00;;;;5093761;28;20191;-64
2023/12/07 06:21:45;;;;;;;2.17;1.77;;;-0.80;86.60;-1.90;96259.00;;;;5093675;28;20218;-63
2023/12/07 06:24:14;;;;;;;3.27;1.70;;;-0.70;86.80;-1.90;96267.00;;;;5093602;28;20303;-63
2023/12/07 06:26:42;;;;;;;5.17;2.20;;;-0.70;86.50;-1.90;96260.00;;;;5093647;28;20214;-63
2023/12/07 06:29:09;;;;;;;2.13;2.03;;;-0.80;86.40;-2.10;96261.00;;;;5093799;28;20244;-63
2023/12/07 06:31:36;;;;;;;3.10;2.13;;;-0.80;86.00;-2.10;96261.00;;;;5093687;28;20211;-64
2023/12/07 06:34:03;;;;;;;1.87;1.73;;;-0.90;86.50;-2.00;96273.00;;;;5093705;28;20217;-63
2023/12/07 06:36:30;;;;;;;1.63;1.53;;;-0.80;87.00;-2.00;96269.00;;;;5093488;28;20195;-63
2023/12/07 06:38:57;;;;;;;3.83;2.80;;;-0.80;87.00;-2.00;96261.00;;;;5093810;28;20194;-64
2023/12/07 06:41:24;;;;;;;1.30;1.20;;;-0.80;87.00;-2.00;96262.00;;;;5093626;28;20244;-63
2023/12/07 06:43:54;;;;;;;3.23;2.57;;;-0.70;87.50;-2.00;96252.00;;;;5093675;28;20577;-64
2023/12/07 06:46:21;;;;;;;1.60;1.50;;;-0.80;87.30;-2.00;96256.00;;;;5093477;28;20191;-63
2023/12/07 06:48:48;;;;;;;2.57;2.37;;;-0.80;87.20;-2.00;96264.00;;;;5093803;28;20638;-63
2023/12/07 06:51:15;;;;;;;2.47;2.27;;;-0.80;87.00;-2.00;96264.00;;;;5093344;28;20214;-64
2023/12/07 06:53:42;;;;;;;3.60;3.30;;;-0.80;86.90;-1.90;96269.00;;;;5094229;28;20196;-63
2023/12/07 06:56:10;;;;;;;8.93;2.00;;;-0.80;87.10;-2.00;96262.00;;;;5097617;28;20673;-64
2023/12/07 06:58:37;;;;;;;1.40;1.33;;;-0.80;86.90;-2.00;96264.00;;;;5097557;28;20678;-63
2023/12/07 07:01:06;;;;;;;1.60;1.50;;;-0.80;86.70;-2.00;96263.00;;;;5097650;28;20182;-63
2023/12/07 07:03:33;;;;;;;2.30;2.10;;;-0.80;86.80;-2.00;96269.00;;;;5097453;28;20242;-63
2023/12/07 07:06:00;;;;;;;1.93;1.73;;;-0.90;86.80;-2.10;96272.00;;;;5098102;28;20221;-64
2023/12/07 07:08:27;;;;;;;2.43;2.23;;;-0.90;86.30;-2.10;96269.00;;;;5097516;28;20195;-63
2023/12/07 07:10:54;;;;;;;5.13;2.80;;;-0.90;87.20;-2.00;96267.00;;;;5097534;28;20561;-63
2023/12/07 07:13:21;;;;;;;2.50;2.33;;;-0.90;87.50;-2.00;96261.00;;;;5095107;28;20226;-65
2023/12/07 07:15:48;;;;;;;2.43;2.23;;;-0.90;89.80;-2.10;96264.00;;;;5097324;28;20191;-66
2023/12/07 07:18:17;;;;;;;4.70;3.43;;;-0.90;92.50;-2.00;96267.00;;;;5098092;28;20347;-66
2023/12/07 07:20:44;;;;;;;3.50;3.20;;;-0.90;92.80;-2.00;96259.00;;;;5097989;28;20198;-66
2023/12/07 07:23:12;;;;;;;5.10;3.50;;;-0.90;92.70;-1.90;96267.00;;;;5092829;28;20234;-64
2023/12/07 07:25:39;;;;;;;3.40;3.10;;;-0.70;92.60;-1.90;96263.00;;;;5093263;28;20251;-63
2023/12/07 07:28:07;;;;;;;5.60;3.83;;;-0.70;92.30;-1.90;96252.00;;;;5095598;28;20202;-63
2023/12/07 07:30:34;;;;;;;3.50;3.00;;;-0.70;91.60;-1.90;96257.00;;;;5095427;28;20708;-63
2023/12/07 07:33:02;;;;;;;3.63;3.33;;;-0.80;91.50;-1.90;96265.00;;;;5095459;28;20207;-63
2023/12/07 07:35:30;;;;;;;4.20;2.63;;;-0.80;91.80;-1.80;96269.00;;;;5095057;28;20692;-63
2023/12/07 07:37:57;;;;;;;3.70;3.40;;;-0.70;92.10;-1.70;96255.00;;;;5094907;28;20601;-63
2023/12/07 07:40:24;;;;;;;7.03;2.23;;;-0.60;92.10;-1.70;96258.00;;;;5094978;28;20553;-63
2023/12/07 07:42:52;;;;;;;2.77;2.57;;;-0.60;91.80;-1.60;96266.00;;;;5093682;28;20238;-63
2023/12/07 07:45:19;;;;;;;3.83;2.40;;;-0.60;92.00;-1.60;96261.00;;;;5094374;28;20681;-63
2023/12/07 07:47:46;;;;;;;3.53;2.00;;;-0.60;91.90;-1.70;96269.00;;;;5094854;28;20546;-63
2023/12/07 07:50:13;;;;;;;2.20;2.10;;;-0.50;91.80;-1.70;96277.00;;;;5094893;28;20213;-63
2023/12/07 07:52:41;;;;;;;2.23;1.97;;;-0.60;91.50;-1.70;96268.00;;;;5094784;28;20264;-63
2023/12/07 07:55:12;;;;;;;1.63;1.53;;;-0.70;92.20;-1.60;96279.00;;;;5091763;28;20191;-63
2023/12/07 07:57:39;;;;;;;2.10;1.90;;;-0.50;92.30;-1.50;96275.00;;;;5094747;28;20187;-63
2023/12/07 08:00:08;;;;;;;2.00;1.90;;;-0.50;92.40;-1.40;96275.00;;;;5093615;28;20217;-61
2023/12/07 08:02:36;;;;;;;1.63;1.40;;;-0.30;92.30;-1.30;96276.00;;;;5094116;28;20215;-62
2023/12/07 08:05:03;;;;;;;1.93;1.83;;;-0.30;92.60;-1.20;96275.00;;;;5093984;28;20301;-62
2023/12/07 08:07:30;;;;;;;2.63;2.43;;;-0.20;91.30;-1.20;96275.00;;;;5094161;28;20194;-63
2023/12/07 08:09:59;;;;;;;2.73;2.53;;;-0.10;91.80;-1.30;96272.00;;;;5093829;28;20685;-63
2023/12/07 08:12:26;;;;;;;2.87;2.47;;;-0.20;90.60;-1.40;96268.00;;;;5094027;28;20211;-63
2023/12/07 08:14:53;;;;;;;3.63;3.27;;;-0.20;90.90;-1.40;96269.00;;;;5093753;28;20198;-63
2023/12/07 08:17:21;;;;;;;9.53;3.20;;;-0.20;91.50;-1.30;96277.00;;;;5093367;28;20187;-63
2023/12/07 08:19:48;;;;;;;4.30;3.77;;;-0.20;91.80;-1.40;96290.00;;;;5094468;28;20243;-62
2023/12/07 08:22:17;;;;;;;3.70;3.40;;;;;-1.50;96305.00;;;;5093398;28;20313;-63
2023/12/07 08:24:44;;;;;;;3.03;2.83;;;-0.20;91.90;-1.30;96300.00;;;;5094568;28;20226;-62
2023/12/07 08:27:12;;;;;;;3.03;2.67;;;-0.20;93.60;-1.10;96298.00;;;;5092206;28;20206;-63
2023/12/07 08:29:39;;;;;;;1.83;1.70;;;0.00;92.80;-1.10;96296.00;;;;5093772;28;20218;-63
2023/12/07 08:32:07;;;;;;;4.47;3.87;;;0.00;92.40;-0.90;96287.00;;;;5093818;28;20217;-62
2023/12/07 08:34:34;;;;;;;5.43;4.80;;;0.20;92.40;-0.90;96280.00;;;;5093637;28;20191;-63
2023/12/07 08:37:03;;;;;;;7.60;4.97;;;0.20;91.90;-0.90;96270.00;;;;5094133;28;20222;-63
2023/12/07 08:39:30;;;;;;;6.60;4.50;;;0.20;91.70;-1.00;96259.00;;;;5092320;28;20654;-63
2023/12/07 08:41:57;;;;;;;3.40;3.20;;;0.20;91.70;-0.90;96249.00;;;;5093433;28;20213;-63
2023/12/07 08:44:25;;;;;;;4.07;3.67;;;0.20;91.70;-0.80;96249.00;;;;5093161;28;20207;-63
2023/12/07 08:46:52;;;;;;;3.67;3.37;;;0.30;91.50;-0.80;96251.00;;;;5093346;28;20273;-63
2023/12/07 08:49:19;;;;;;;2.13;2.03;;;0.20;91.40;-0.90;96255.00;;;;5093469;28;20684;-63
2023/12/07 08:51:47;;;;;;;4.83;2.93;;;0.20;91.40;-0.60;96242.00;;;;5093382;28;20238;-63
2023/12/07 08:54:14;;;;;;;1.93;1.83;;;0.40;93.90;-0.40;96244.00;;;;5093604;28;20196;-63
2023/12/07 08:56:44;;;;;;;0.93;0.93;;;;;-0.10;96258.00;;;;5093201;28;20190;-63
2023/12/07 08:59:12;;;;;;;5.20;2.43;;;;;0.20;96254.00;;;;5093819;28;20273;-63
2023/12/07 09:01:40;;;;;;;1.83;1.73;;;1.20;82.60;0.30;96259.00;;;;5093347;28;20223;-63
2023/12/07 09:04:07;;;;;;;3.97;2.00;;;1.20;97.50;0.50;96269.00;;;;5093174;28;20212;-63
2023/12/07 09:06:35;;;;;;;1.67;1.57;;;1.30;82.30;0.80;96255.00;;;;5093041;28;20192;-63
2023/12/07 09:09:04;;;;;;;2.33;1.83;;;;;0.90;96259.00;;;;5093448;28;20278;-63
2023/12/07 09:11:31;;;;;;;2.47;2.27;;;;;0.90;96248.00;;;;5093358;28;20680;-63
2023/12/07 09:14:01;;;;;;;2.30;2.07;;;;;0.90;96243.00;;;;5093582;28;20548;-63
2023/12/07 09:16:28;;;;;;;2.83;2.20;;;;;0.80;96235.00;;;;5092822;28;20710;-63
2023/12/07 09:18:57;;;;;;;2.17;2.07;;;;;1.20;96227.00;;;;5093477;28;20518;-63
2023/12/07 09:21:25;;;;;;;2.73;1.97;;;;;1.40;96222.00;;;;5093359;28;20204;-63
2023/12/07 09:23:53;;;;;;;2.53;2.33;;;;;1.50;96217.00;;;;5093006;28;20221;-63
2023/12/07 09:26:20;;;;;;;5.87;2.67;;;;;1.50;96234.00;;;;5093542;28;20208;-63
2023/12/07 09:28:48;;;;;;;1.10;1.10;;;;;1.70;96238.00;;;;5093415;28;20548;-64
2023/12/07 09:31:17;;;;;;;1.77;1.67;;;;;1.50;96235.00;;;;5092874;28;20193;-62
2023/12/07 09:33:47;;;;;;;4.10;1.90;;;;;1.50;96228.00;;;;5091830;28;20198;-63
2023/12/07 09:36:21;;;;;;;1.57;1.50;;;;;1.50;96233.00;;;;5092746;28;20232;-63
2023/12/07 09:38:50;;;;;;;1.63;1.53;;;;;1.50;96229.00;;;;5088602;28;20201;-62
2023/12/07 09:41:18;;;;;;;2.60;2.13;;;;;1.50;96235.00;;;;5092978;28;20241;-63
2023/12/07 09:43:46;;;;;;;2.53;2.10;;;;;1.60;96219.00;;;;5093379;28;20198;-63
2023/12/07 09:46:17;;;;;;;2.33;2.20;;;;;1.50;96230.00;;;;5092170;28;20231;-63
2023/12/07 09:48:45;;;;;;;3.90;3.60;;;;;1.60;96236.00;;;;5093457;28;20628;-63
2023/12/07 09:51:16;;;;;;;1.17;1.17;;;;;1.50;96228.00;;;;5092275;28;20631;-63
2023/12/07 09:53:49;;;;;;;2.20;2.00;;;;;1.60;96213.00;;;;5093219;28;20266;-63
2023/12/07 09:56:17;;;;;;;2.07;1.97;;;;;1.80;96228.00;;;;5092424;28;20183;-63
2023/12/07 09:58:44;;;;;;;2.20;2.10;;;;;1.90;96218.00;;;;5092320;28;20280;-63
2023/12/07 10:01:14;;;;;;;4.33;2.07;;;;;2.20;96208.00;;;;5092324;28;20299;-63
2023/12/07 10:03:42;;;;;;;3.73;2.07;;;;;2.40;96193.00;;;;5092059;28;20197;-61
2023/12/07 10:06:10;;;;;;;2.00;1.90;;;;;2.50;96195.00;;;;5091913;28;20211;-62
2023/12/07 10:08:37;;;;;;;4.57;2.90;;;;;2.40;96195.00;;;;5092008;28;20198;-62
2023/12/07 10:11:08;;;;;;;2.03;1.87;;;;;2.30;96200.00;;;;5090971;28;20202;-62
2023/12/07 10:13:36;;;;;;;2.00;1.90;;;;;2.30;96178.00;;;;5091886;28;20685;-62
2023/12/07 10:16:11;;;;;;;2.87;2.33;;;;;2.60;96182.00;;;;5092499;28;20285;-62
2023/12/07 10:18:40;;;;;;;2.00;1.33;;;;;2.20;96181.00;;;;5092150;28;20197;-62
2023/12/07 10:21:09;;;;;;;2.13;1.93;;;;;2.40;96171.00;;;;5088103;28;20233;-62
2023/12/07 10:23:37;;;;;;;2.30;2.20;;;;;2.60;96166.00;;;;5091583;28;20251;-62
2023/12/07 10:26:07;;;;;;;3.23;1.87;;;;;2.50;96168.00;;;;5091948;28;20222;-62
2023/12/07 10:28:37;;;;;;;2.53;2.33;;;;;2.50;96195.00;;;;5090663;28;20692;-62
2023/12/07 10:31:07;;;;;;;2.23;2.03;;;;;2.50;96189.00;;;;5092571;28;20273;-62
2023/12/07 10:33:37;;;;;;;4.00;2.97;;;;;2.40;96196.00;;;;5088843;28;20244;-62
2023/12/07 10:36:06;;;;;;;1.67;1.57;;;;;2.50;96197.00;;;;5092089;28;20270;-62
2023/12/07 10:38:33;;;;;;;2.47;2.37;;;;;2.30;96186.00;;;;5091611;28;20278;-62
2023/12/07 10:41:09;;;;;;;1.70;1.27;;;;;2.50;96193.00;;;;5091155;28;20194;-62
2023/12/07 10:43:38;;;;;;;1.00;1.00;;;;;2.50;96174.00;;;;5092303;28;20666;-62
2023/12/07 10:46:07;;;;;;;2.00;1.90;;;;;2.60;96167.00;;;;5092104;28;20215;-62
2023/12/07 10:48:36;;;;;;;2.07;1.93;;;;;2.70;96157.00;;;;5091478;28;20693;-62
2023/12/07 10:51:08;;;;;;;1.07;1.07;;;;;2.90;96143.00;;;;5092743;28;20195;-62
2023/12/07 10:53:43;;;;;;;1.37;1.27;;;;;3.10;96123.00;;;;5091955;28;20218;-62
2023/12/07 10:56:16;;;;;;;2.97;2.77;;;;;4.10;96108.00;;;;5088181;28;20186;-63
2023/12/07 10:58:46;;;;;;;1.20;1.10;;;;;4.90;96114.00;;;;5091790;28;20197;-63
2023/12/07 11:01:14;;;;;;;0.83;0.83;;;;;5.50;96100.00;;;;5092820;28;20199;-62
2023/12/07 11:03:42;;;;;;;2.40;2.10;;;;;6.70;96078.00;;;;5091627;28;20272;-63
2023/12/07 11:06:11;;;;;;;1.60;1.50;;;;;8.50;96064.00;;;;5091721;28;20685;-63
2023/12/07 11:08:44;;;;;;;1.47;1.37;;;;;9.40;96064.00;;;;5092120;28;20190;-64
2023/12/07 11:11:21;;;;;;;0.90;0.90;;;;;10.60;96055.00;;;;5091907;28;20197;-67
2023/12/07 11:13:54;;;;;;;0.97;0.97;;;;;12.60;96042.00;;;;5090589;28;20197;-67
2023/12/07 11:16:31;;;;;;;2.17;1.70;;;;;13.00;96046.00;;;;5074265;28;20216;-64
2023/12/07 11:19:00;;;;;;;1.80;1.70;;;;;13.50;96050.00;;;;5088085;28;20553;-66
2023/12/07 11:21:29;;;;;;;1.90;1.73;;;;;15.00;96059.00;;;;5081857;22;20689;-63